TimeCDT,TemperatureF,Dew PointF,Humidity,Sea Level PressureIn,VisibilityMPH,Wind Direction,Wind SpeedMPH,Gust SpeedMPH,PrecipitationIn,Events,Conditions,WindDirDegrees,DateUTC
12:53 AM,59.0,52.0,78,30.18,10.0,ENE,5.8,-,N/A,,Clear,70,2013-05-24 05:53:00
1:53 AM,57.0,52.0,83,30.19,10.0,ENE,5.8,-,N/A,,Clear,60,2013-05-24 06:53:00
2:53 AM,55.9,52.0,87,30.20,10.0,ENE,4.6,-,N/A,,Clear,70,2013-05-24 07:53:00
3:53 AM,55.0,51.1,86,30.22,10.0,ENE,4.6,-,N/A,,Clear,70,2013-05-24 08:53:00
4:53 AM,54.0,51.1,90,30.23,9.0,ENE,5.8,-,N/A,,Clear,70,2013-05-24 09:53:00
5:53 AM,53.1,50.0,89,30.26,7.0,East,4.6,-,N/A,,Clear,80,2013-05-24 10:53:00
6:53 AM,54.0,51.1,90,30.29,7.0,East,4.6,-,N/A,,Clear,90,2013-05-24 11:53:00
7:53 AM,55.9,48.9,77,30.31,9.0,East,8.1,-,N/A,,Clear,80,2013-05-24 12:53:00
8:53 AM,59.0,46.9,64,30.32,10.0,East,12.7,-,N/A,,Clear,90,2013-05-24 13:53:00
9:53 AM,62.1,45.0,53,30.32,10.0,East,10.4,17.3,N/A,,Clear,80,2013-05-24 14:53:00
10:53 AM,64.0,45.0,50,30.32,10.0,East,6.9,-,N/A,,Clear,90,2013-05-24 15:53:00
11:53 AM,66.0,44.1,45,30.32,10.0,ENE,9.2,-,N/A,,Clear,70,2013-05-24 16:53:00
12:53 PM,69.1,45.0,42,30.30,10.0,ENE,8.1,16.1,N/A,,Clear,60,2013-05-24 17:53:00
1:53 PM,70.0,45.0,41,30.28,10.0,ENE,10.4,-,N/A,,Clear,60,2013-05-24 18:53:00
2:53 PM,72.0,43.0,35,30.27,10.0,ESE,10.4,-,N/A,,Clear,110,2013-05-24 19:53:00
3:53 PM,73.0,45.0,37,30.25,10.0,ESE,9.2,-,N/A,,Clear,110,2013-05-24 20:53:00
4:53 PM,73.0,42.1,33,30.23,10.0,East,9.2,-,N/A,,Clear,80,2013-05-24 21:53:00
5:53 PM,72.0,41.0,33,30.22,10.0,ESE,6.9,-,N/A,,Clear,110,2013-05-24 22:53:00
6:53 PM,70.0,41.0,35,30.21,10.0,ESE,6.9,-,N/A,,Clear,120,2013-05-24 23:53:00
7:53 PM,64.9,42.1,43,30.21,10.0,SE,6.9,-,N/A,,Clear,130,2013-05-25 00:53:00
8:53 PM,62.1,43.0,50,30.22,10.0,SE,4.6,-,N/A,,Clear,130,2013-05-25 01:53:00
9:53 PM,60.1,44.1,55,30.24,10.0,ESE,4.6,-,N/A,,Clear,120,2013-05-25 02:53:00
10:53 PM,57.9,44.1,60,30.26,10.0,ESE,3.5,-,N/A,,Clear,110,2013-05-25 03:53:00
11:53 PM,57.0,44.1,62,30.26,10.0,ESE,6.9,-,N/A,,Clear,110,2013-05-25 04:53:00